< < Back
Terminal Aerodrome Forecast


Current Version              Previous Versions:   1  2  3  4  5  6  7  8  9  

Terminal Aerodrome Forecast

071
FTUS44 KMOB 191700
TAFPNS
TAF
KPNS 191729Z 1918/2018 04008KT P6SM FEW200
     FM200000 03003KT P6SM FEW250=

Latest METAR

973
SAUS70 KWBC 200800 RRJ
MTRPNS
METAR KPNS 200753Z AUTO 03004KT 10SM CLR 12/11 A3005 RMK AO2 SLP176
T01170106


USA.gov is the U.S. government's official web portal to all federal, state and local government web resources and services.